Weather at Stokmarknes Airport, Skagen

Public forecast

Using degrees Celsius for public forecast. Weather courtesy of forecast.io.

Current aviation weather report (METAR) for Stokmarknes Airport, Skagen

Report is more than 6 hours old.

2022/11/14 15:20 (retrieved 2 years ago)

ENSK 141520Z 34006KT 9999 FEW019 03/01 Q1023

Closest aviation forecast (TAF) to Stokmarknes Airport, Skagen

Forecast is more than 12 hours old.

Closest forecast is Harstad/Narvik Airport, Evenes, 36.5 nm (67.6 km) E.

2023/02/22 20:12 Ammendment (retrieved 1 year ago)

TAF AMD ENEV 222008Z 2220/2318 22009KT 9999 BKN025 TEMPO 2220/2223 1000 SN VV008 TEMPO 2223/2315 22018G28KT TEMPO 2223/2318 1200 SHSN VV008 TEMPO 2302/2318 SCT030CB